Moncao, Brazil
Current Conditions -  °F | °C
As of 3:00 PM on Friday 28 Nov 2014 (Local Time) from SBSL Reporting Station
Scattered Clouds Scattered Clouds  
Wind Chill: 90°   Ceiling: Unl
Heat Index: 93°   Visibility: 6mi
Dew Point: 68°   Wind: 16mph
Humidity: 49%   Direction: 50°NE
Pressure: 29.8"   Gusts: NA
Location:  3.49°S, 45.25°W
Report Text: SBSL 281800Z 05014KT 360V090 9999 SCT017 32/20 Q1009
Loading
Personal Weather Stations






























Interactive Weather Map New forecast layout! Learn more

10-Day Weather Forecast

Advertisements
Track Severe Weather on mobile